Time;durP1;ratioP1;P1;durP2;ratioP2;P2;SDS_P1;SDS_P2;PMS_P1;PMS_P2;Temp;Humidity;BMP_temperature;BMP_pressure;BME280_temperature;BME280_humidity;BME280_pressure;Samples;Min_cycle;Max_cycle;Signal;HPM_P1;HPM_P2
2023/02/07 00:02:14;;;;;;;51.22;11.75;;;6.20;87.40;;;;;;5082808;28;20084;-56
2023/02/07 00:04:40;;;;;;;59.88;11.50;;;6.10;87.40;;;;;;5082844;28;20085;-56
2023/02/07 00:07:05;;;;;;;61.80;12.77;;;6.10;87.40;;;;;;5082888;28;20076;-55
2023/02/07 00:09:31;;;;;;;46.65;12.13;;;6.10;87.50;;;;;;5082854;28;20029;-56
2023/02/07 00:11:56;;;;;;;56.10;12.20;;;6.10;87.50;;;;;;5082989;28;20080;-56
2023/02/07 00:14:22;;;;;;;61.30;12.15;;;6.00;87.50;;;;;;5082851;28;20028;-56
2023/02/07 00:16:47;;;;;;;38.13;11.00;;;6.00;87.60;;;;;;5084257;28;20020;-56
2023/02/07 00:19:13;;;;;;;40.95;10.00;;;6.00;87.40;;;;;;5082652;28;20037;-56
2023/02/07 00:21:39;;;;;;;40.38;10.60;;;6.00;87.60;;;;;;5083968;28;20337;-56
2023/02/07 00:24:05;;;;;;;44.67;10.80;;;6.00;87.60;;;;;;5084095;28;20040;-56
2023/02/07 00:26:30;;;;;;;48.88;11.55;;;5.90;87.50;;;;;;5082599;28;20028;-56
2023/02/07 00:28:56;;;;;;;42.45;11.10;;;5.90;87.50;;;;;;5083882;28;20025;-56
2023/02/07 00:31:29;;;;;;;32.70;12.30;;;5.90;87.40;;;;;;5085353;28;20031;-56
2023/02/07 00:33:57;;;;;;;39.70;11.90;;;5.90;87.40;;;;;;5087444;28;20042;-56
2023/02/07 00:36:23;;;;;;;34.30;10.55;;;5.80;87.20;;;;;;5086218;28;20123;-56
2023/02/07 00:38:48;;;;;;;36.38;11.43;;;5.80;87.30;;;;;;5069669;28;20032;-56
2023/02/07 00:41:17;;;;;;;34.42;10.80;;;5.80;87.40;;;;;;5086107;28;20040;-56
2023/02/07 00:43:45;;;;;;;33.63;10.98;;;5.80;88.10;;;;;;5085889;28;20021;-56
2023/02/07 00:46:11;;;;;;;38.38;12.05;;;5.80;87.50;;;;;;5086121;28;20086;-56
2023/02/07 00:48:38;;;;;;;29.75;10.57;;;5.80;87.60;;;;;;5085957;28;20032;-56
2023/02/07 00:51:04;;;;;;;33.40;11.18;;;5.80;87.70;;;;;;5085908;28;20024;-56
2023/02/07 00:53:30;;;;;;;35.30;12.38;;;5.80;87.70;;;;;;5069220;28;20069;-56
2023/02/07 00:55:55;;;;;;;34.33;10.73;;;5.70;87.60;;;;;;5086007;28;20080;-56
2023/02/07 00:58:21;;;;;;;32.03;11.07;;;5.70;87.50;;;;;;5087229;28;20127;-56
2023/02/07 01:00:47;;;;;;;30.40;10.80;;;5.70;87.50;;;;;;5069195;28;20046;-56
2023/02/07 01:03:12;;;;;;;26.13;10.55;;;5.70;87.40;;;;;;5085871;28;20032;-56
2023/02/07 01:05:38;;;;;;;29.25;9.75;;;5.70;87.60;;;;;;5085336;28;20143;-56
2023/02/07 01:08:03;;;;;;;22.70;10.65;;;5.70;87.60;;;;;;5085442;28;20035;-56
2023/02/07 01:10:29;;;;;;;31.33;10.98;;;5.70;87.70;;;;;;5085566;28;20142;-56
2023/02/07 01:12:55;;;;;;;20.17;10.43;;;5.60;87.50;;;;;;5086861;28;20149;-56
2023/02/07 01:15:20;;;;;;;30.23;10.80;;;5.60;87.50;;;;;;5086901;28;20423;-56
2023/02/07 01:17:46;;;;;;;26.23;9.75;;;5.60;87.40;;;;;;5068843;28;20181;-56
2023/02/07 01:20:11;;;;;;;21.55;10.18;;;5.60;87.40;;;;;;5087022;28;20032;-56
2023/02/07 01:22:38;;;;;;;22.67;10.02;;;5.60;87.40;;;;;;5086634;28;20029;-56
2023/02/07 01:25:04;;;;;;;22.75;9.52;;;5.60;87.40;;;;;;5085687;28;20027;-55
2023/02/07 01:27:30;;;;;;;26.17;9.63;;;5.60;87.40;;;;;;5085397;28;20366;-56
2023/02/07 01:29:56;;;;;;;26.13;11.35;;;5.60;87.50;;;;;;5086595;28;20033;-55
2023/02/07 01:32:21;;;;;;;29.08;12.13;;;5.60;87.50;;;;;;5085278;28;20031;-55
2023/02/07 01:34:47;;;;;;;31.27;12.65;;;5.60;87.50;;;;;;5085272;28;20119;-55
2023/02/07 01:37:12;;;;;;;26.20;11.80;;;5.50;87.40;;;;;;5086521;28;20132;-55
2023/02/07 01:39:38;;;;;;;21.20;11.23;;;5.50;87.50;;;;;;5084878;28;20032;-55
2023/02/07 01:42:04;;;;;;;22.67;10.70;;;5.50;87.60;;;;;;5086067;28;20028;-56
2023/02/07 01:44:30;;;;;;;24.98;12.02;;;5.50;87.50;;;;;;5084434;28;20039;-56
2023/02/07 01:46:55;;;;;;;25.42;11.18;;;5.50;87.60;;;;;;5086518;28;20092;-56
2023/02/07 01:49:23;;;;;;;21.88;11.93;;;5.40;87.60;;;;;;5084770;28;20115;-55
2023/02/07 01:51:53;;;;;;;23.77;11.63;;;5.40;87.60;;;;;;5084908;28;20024;-56
2023/02/07 01:54:19;;;;;;;25.30;11.48;;;5.40;87.70;;;;;;5084699;28;20036;-56
2023/02/07 01:56:47;;;;;;;25.50;11.23;;;5.40;87.60;;;;;;5084720;28;20037;-56
2023/02/07 01:59:13;;;;;;;21.77;10.45;;;5.40;87.60;;;;;;5084712;28;20053;-54
2023/02/07 02:01:38;;;;;;;19.85;10.90;;;5.40;87.70;;;;;;5084720;28;20490;-55
2023/02/07 02:04:04;;;;;;;21.38;10.65;;;5.40;87.70;;;;;;5067782;28;20427;-56
2023/02/07 02:06:30;;;;;;;20.90;11.00;;;5.30;87.70;;;;;;5086093;28;20326;-55
2023/02/07 02:08:57;;;;;;;26.30;12.00;;;5.30;87.70;;;;;;5084663;28;20021;-56
2023/02/07 02:11:53;;;;;;;19.95;11.45;;;5.30;87.70;;;;;;5084378;28;20025;-56
2023/02/07 02:14:34;;;;;;;17.40;11.23;;;5.20;87.50;;;;;;5070136;28;20048;-56
2023/02/07 02:17:44;;;;;;;18.55;10.18;;;5.30;87.50;;;;;;5085792;28;20028;-55
2023/02/07 02:20:47;;;;;;;22.15;10.80;;;5.20;87.40;;;;;;5048224;28;20047;-56
2023/02/07 02:23:17;;;;;;;18.27;9.77;;;5.20;87.40;;;;;;5085630;28;20033;-55
2023/02/07 02:26:01;;;;;;;25.33;10.20;;;5.10;87.30;;;;;;5084056;28;20040;-55
2023/02/07 02:28:47;;;;;;;14.65;9.45;;;5.10;87.30;;;;;;5085387;28;20027;-56
2023/02/07 02:31:28;;;;;;;16.85;10.30;;;5.10;87.30;;;;;;5064057;28;20127;-55
2023/02/07 02:33:59;;;;;;;19.50;10.25;;;5.10;87.10;;;;;;5084060;28;20096;-56
2023/02/07 02:36:37;;;;;;;18.40;10.02;;;5.10;87.10;;;;;;5083964;28;20028;-55
2023/02/07 02:39:14;;;;;;;20.58;11.18;;;5.00;86.90;;;;;;5083745;28;20043;-56
2023/02/07 02:42:00;;;;;;;17.98;11.20;;;5.00;86.90;;;;;;5083860;28;20088;-55
2023/02/07 02:44:32;;;;;;;19.40;10.82;;;5.00;86.90;;;;;;5083829;28;20071;-55
2023/02/07 02:46:59;;;;;;;17.50;12.07;;;5.00;87.10;;;;;;5067071;28;20020;-55
2023/02/07 02:49:25;;;;;;;17.35;10.85;;;5.00;87.10;;;;;;5085033;28;20048;-56
2023/02/07 02:51:51;;;;;;;17.00;11.63;;;5.00;87.10;;;;;;5083813;28;20032;-56
2023/02/07 02:54:34;;;;;;;19.55;11.70;;;4.90;87.00;;;;;;5083462;28;20098;-55
2023/02/07 02:57:33;;;;;;;20.25;12.23;;;4.90;87.00;;;;;;5083764;28;20534;-56
2023/02/07 03:00:35;;;;;;;21.63;11.75;;;4.90;87.10;;;;;;5085004;28;20040;-56
2023/02/07 03:03:25;;;;;;;18.38;11.98;;;4.90;87.10;;;;;;5033444;28;20429;-55
2023/02/07 03:05:52;;;;;;;18.90;10.90;;;4.90;87.10;;;;;;5085049;28;20032;-56
2023/02/07 03:08:43;;;;;;;16.27;10.90;;;4.90;87.00;;;;;;5083790;28;20047;-55
2023/02/07 03:11:13;;;;;;;15.90;10.73;;;4.90;87.00;;;;;;5083774;28;20029;-56
2023/02/07 03:14:12;;;;;;;19.20;10.50;;;4.80;87.20;;;;;;5083570;28;20024;-55
2023/02/07 03:16:40;;;;;;;17.15;11.43;;;4.80;87.30;;;;;;5085016;28;20136;-56
2023/02/07 03:19:10;;;;;;;19.42;12.93;;;4.90;87.30;;;;;;5083643;28;20060;-55
2023/02/07 03:21:48;;;;;;;21.88;12.25;;;4.80;87.20;;;;;;5083644;28;20032;-55
2023/02/07 03:24:17;;;;;;;18.50;11.35;;;4.80;87.10;;;;;;5083467;28;20040;-55
2023/02/07 03:26:43;;;;;;;19.80;12.07;;;4.80;87.00;;;;;;5083356;28;20088;-55
2023/02/07 03:29:09;;;;;;;16.38;11.05;;;4.80;86.80;;;;;;5083389;28;20036;-56
2023/02/07 03:31:37;;;;;;;17.60;11.25;;;4.70;86.60;;;;;;5083569;28;20361;-53
2023/02/07 03:34:09;;;;;;;16.08;10.88;;;4.70;86.50;;;;;;5083764;28;20036;-55
2023/02/07 03:36:45;;;;;;;19.42;12.20;;;4.70;86.40;;;;;;5083337;28;20028;-56
2023/02/07 03:39:11;;;;;;;14.88;11.05;;;4.70;86.40;;;;;;5066650;28;20098;-56
2023/02/07 03:41:43;;;;;;;18.38;10.65;;;4.60;86.20;;;;;;5083306;28;20021;-55
2023/02/07 03:44:08;;;;;;;15.13;11.48;;;4.60;86.10;;;;;;5083278;28;20083;-56
2023/02/07 03:46:37;;;;;;;14.75;11.40;;;4.60;85.90;;;;;;5083054;28;20512;-56
2023/02/07 03:49:03;;;;;;;13.38;10.77;;;4.60;85.90;;;;;;5066278;28;20059;-55
2023/02/07 03:51:28;;;;;;;12.90;10.43;;;4.60;85.80;;;;;;5083092;28;20051;-55
2023/02/07 03:53:54;;;;;;;14.25;11.00;;;4.60;85.80;;;;;;5084359;28;20056;-55
2023/02/07 03:56:19;;;;;;;13.80;10.70;;;4.60;85.60;;;;;;5083247;28;20075;-55
2023/02/07 03:58:45;;;;;;;16.75;10.73;;;4.50;85.50;;;;;;5083112;28;20055;-55
2023/02/07 04:01:11;;;;;;;19.17;11.38;;;4.50;85.40;;;;;;5084429;28;20056;-55
2023/02/07 04:03:37;;;;;;;12.55;10.85;;;4.50;85.30;;;;;;5084120;28;20029;-56
2023/02/07 04:06:03;;;;;;;16.35;11.23;;;4.50;85.30;;;;;;5083813;28;20112;-56
2023/02/07 04:08:29;;;;;;;14.35;10.52;;;4.50;85.30;;;;;;5086832;28;20016;-55
2023/02/07 04:10:58;;;;;;;13.07;10.40;;;4.50;85.30;;;;;;5086744;28;20049;-55
2023/02/07 04:13:24;;;;;;;13.35;10.38;;;4.50;85.10;;;;;;5087070;28;20466;-56
2023/02/07 04:15:50;;;;;;;13.60;10.90;;;4.40;85.20;;;;;;5088203;28;20047;-55
2023/02/07 04:18:15;;;;;;;12.43;9.85;;;4.40;85.20;;;;;;5087413;28;20032;-56
2023/02/07 04:20:41;;;;;;;13.55;10.68;;;4.40;85.10;;;;;;5087794;28;20048;-56
2023/02/07 04:23:06;;;;;;;12.93;10.90;;;4.40;85.10;;;;;;5086402;28;20143;-56
2023/02/07 04:25:32;;;;;;;12.75;10.32;;;4.40;85.00;;;;;;5086272;28;20063;-56
2023/02/07 04:27:57;;;;;;;13.43;11.00;;;4.40;85.00;;;;;;5069733;28;20039;-55
2023/02/07 04:30:23;;;;;;;12.77;10.48;;;4.30;84.90;;;;;;5086426;28;20020;-55
2023/02/07 04:32:48;;;;;;;17.02;11.23;;;4.30;84.90;;;;;;5086617;28;20077;-55
2023/02/07 04:35:14;;;;;;;12.88;10.73;;;4.30;85.00;;;;;;5086202;28;20075;-55
2023/02/07 04:37:39;;;;;;;69.75;17.27;;;4.30;85.60;;;;;;5086406;28;20029;-55
2023/02/07 04:40:06;;;;;;;36.97;14.07;;;4.30;85.00;;;;;;5087366;28;20033;-55
2023/02/07 04:42:31;;;;;;;23.13;13.00;;;4.30;85.00;;;;;;5086055;28;20063;-56
2023/02/07 04:44:57;;;;;;;36.35;14.77;;;4.30;85.00;;;;;;5086011;28;20032;-55
2023/02/07 04:47:22;;;;;;;31.70;14.05;;;4.30;85.00;;;;;;5069225;28;20116;-55
2023/02/07 04:49:48;;;;;;;34.65;14.90;;;4.30;85.00;;;;;;5087364;28;20036;-56
2023/02/07 04:52:13;;;;;;;31.45;15.40;;;4.20;84.90;;;;;;5087455;28;20047;-55
2023/02/07 04:54:39;;;;;;;30.00;14.82;;;4.20;85.00;;;;;;5085828;28;20040;-55
2023/02/07 04:57:04;;;;;;;32.67;16.10;;;4.30;85.70;;;;;;5086131;28;20040;-55
2023/02/07 04:59:30;;;;;;;31.40;14.93;;;4.20;85.10;;;;;;5086075;28;20490;-56
2023/02/07 05:01:56;;;;;;;38.30;16.10;;;4.20;85.10;;;;;;5087301;28;20032;-56
2023/02/07 05:04:21;;;;;;;30.95;14.50;;;4.20;85.10;;;;;;5085614;28;20032;-56
2023/02/07 05:06:47;;;;;;;38.08;15.02;;;4.20;85.10;;;;;;5068927;28;20025;-55
2023/02/07 05:09:12;;;;;;;30.58;15.25;;;4.20;85.10;;;;;;5085542;28;20029;-55
2023/02/07 05:11:38;;;;;;;33.53;14.05;;;4.20;85.10;;;;;;5085939;28;20149;-56
2023/02/07 05:14:03;;;;;;;29.38;14.40;;;4.20;85.10;;;;;;5085714;28;20097;-55
2023/02/07 05:16:29;;;;;;;28.05;13.43;;;4.20;85.10;;;;;;5085528;28;20082;-56
2023/02/07 05:18:54;;;;;;;28.70;14.30;;;4.20;85.10;;;;;;5084194;28;20043;-56
2023/02/07 05:21:20;;;;;;;31.58;13.65;;;4.20;85.10;;;;;;5085622;28;20040;-56
2023/02/07 05:23:46;;;;;;;38.25;15.05;;;4.20;85.30;;;;;;5085539;28;20070;-55
2023/02/07 05:26:11;;;;;;;33.05;14.30;;;4.20;85.40;;;;;;5087132;28;20024;-55
2023/02/07 05:28:37;;;;;;;38.08;13.85;;;4.10;85.30;;;;;;5086747;28;20076;-55
2023/02/07 05:31:02;;;;;;;28.23;13.65;;;4.10;85.30;;;;;;5085532;28;20058;-56
2023/02/07 05:33:28;;;;;;;32.67;13.52;;;4.10;85.30;;;;;;5068349;28;20016;-56
2023/02/07 05:35:53;;;;;;;34.25;14.02;;;4.10;85.40;;;;;;5086710;28;20036;-56
2023/02/07 05:38:19;;;;;;;26.15;12.70;;;4.10;85.60;;;;;;5086436;28;20178;-56
2023/02/07 05:40:45;;;;;;;26.25;12.82;;;4.10;85.50;;;;;;5084968;28;20040;-55
2023/02/07 05:43:11;;;;;;;23.08;13.75;;;4.10;85.40;;;;;;5085016;28;20047;-55
2023/02/07 05:45:36;;;;;;;27.40;13.55;;;4.10;85.40;;;;;;5086468;28;20032;-55
2023/02/07 05:48:02;;;;;;;32.95;13.73;;;4.10;85.50;;;;;;5084778;28;20092;-55
2023/02/07 05:50:28;;;;;;;20.33;13.30;;;4.10;85.60;;;;;;5084909;28;20062;-56
2023/02/07 05:52:53;;;;;;;31.00;13.27;;;4.10;86.00;;;;;;5084805;28;20035;-55
2023/02/07 05:55:19;;;;;;;24.40;12.13;;;4.10;86.30;;;;;;5084773;28;20554;-55
2023/02/07 05:57:44;;;;;;;27.70;13.20;;;4.10;86.50;;;;;;5085760;28;20029;-55
2023/02/07 06:00:16;;;;;;;20.98;12.40;;;4.00;86.70;;;;;;5084818;28;20028;-55
2023/02/07 06:02:42;;;;;;;26.67;12.73;;;4.10;86.80;;;;;;5086021;28;20071;-56
2023/02/07 06:05:12;;;;;;;24.30;12.90;;;4.10;87.70;;;;;;5085969;28;20028;-55
2023/02/07 06:07:38;;;;;;;25.38;13.90;;;4.10;87.30;;;;;;5086012;28;20067;-56
2023/02/07 06:10:04;;;;;;;21.13;13.10;;;4.00;87.50;;;;;;5084355;28;20055;-55
2023/02/07 06:12:30;;;;;;;24.38;12.82;;;4.00;87.70;;;;;;5085851;28;20088;-55
2023/02/07 06:14:56;;;;;;;19.02;12.57;;;4.00;87.70;;;;;;5084364;28;20472;-55
2023/02/07 06:17:21;;;;;;;20.55;13.05;;;4.00;87.70;;;;;;5084145;28;20037;-55
2023/02/07 06:19:47;;;;;;;24.40;12.55;;;4.00;87.80;;;;;;5084165;28;20029;-55
2023/02/07 06:22:13;;;;;;;20.67;12.75;;;4.00;87.80;;;;;;5084303;28;20031;-55
2023/02/07 06:24:39;;;;;;;22.00;12.95;;;4.00;87.70;;;;;;5067566;28;20040;-56
2023/02/07 06:27:04;;;;;;;27.88;12.05;;;4.00;87.80;;;;;;5084215;28;20028;-56
2023/02/07 06:29:30;;;;;;;18.45;11.80;;;4.00;87.80;;;;;;5083725;28;20103;-56
2023/02/07 06:31:55;;;;;;;22.05;12.52;;;3.90;87.70;;;;;;5084107;28;20093;-58
2023/02/07 06:34:21;;;;;;;26.20;12.77;;;3.90;87.80;;;;;;5085445;28;20074;-57
2023/02/07 06:36:47;;;;;;;18.30;11.75;;;3.90;87.80;;;;;;5085297;28;20025;-58
2023/02/07 06:39:12;;;;;;;18.58;12.15;;;3.90;87.80;;;;;;5083981;28;20028;-57
2023/02/07 06:41:38;;;;;;;23.58;12.30;;;3.90;87.80;;;;;;5083813;28;20028;-57
2023/02/07 06:44:03;;;;;;;20.80;12.25;;;3.90;87.80;;;;;;5084117;28;20029;-57
2023/02/07 06:46:29;;;;;;;16.25;10.98;;;3.90;87.80;;;;;;5084153;28;20054;-57
2023/02/07 06:48:54;;;;;;;20.33;11.88;;;3.90;87.80;;;;;;5083749;28;20024;-57
2023/02/07 06:51:20;;;;;;;20.15;11.35;;;3.80;87.70;;;;;;5083759;28;20024;-57
2023/02/07 06:53:46;;;;;;;25.52;13.15;;;3.80;87.80;;;;;;5083990;28;20090;-58
2023/02/07 06:56:11;;;;;;;18.40;11.55;;;3.80;87.80;;;;;;5083950;28;20183;-57
2023/02/07 06:58:37;;;;;;;18.67;11.63;;;3.80;87.80;;;;;;5084997;28;20039;-57
2023/02/07 07:01:03;;;;;;;27.83;12.32;;;3.80;87.90;;;;;;5085218;28;20083;-58
2023/02/07 07:03:29;;;;;;;19.67;12.35;;;3.80;87.80;;;;;;5083308;28;20048;-57
2023/02/07 07:05:55;;;;;;;25.05;11.63;;;3.80;87.80;;;;;;5067189;28;20028;-58
2023/02/07 07:08:21;;;;;;;21.17;12.13;;;3.80;87.80;;;;;;5083100;28;20048;-58
2023/02/07 07:10:46;;;;;;;21.85;12.10;;;3.80;87.80;;;;;;5083231;28;20036;-58
2023/02/07 07:13:12;;;;;;;22.13;12.60;;;3.80;87.80;;;;;;5084235;28;20016;-58
2023/02/07 07:15:37;;;;;;;15.18;11.70;;;3.80;87.80;;;;;;5084632;28;20081;-58
2023/02/07 07:18:03;;;;;;;25.83;12.35;;;3.80;87.80;;;;;;5066277;28;20035;-57
2023/02/07 07:20:29;;;;;;;17.70;11.43;;;3.80;87.70;;;;;;5083159;28;20380;-56
2023/02/07 07:22:54;;;;;;;20.23;12.35;;;3.80;87.70;;;;;;5083434;28;20096;-57
2023/02/07 07:25:20;;;;;;;18.17;11.57;;;3.80;87.70;;;;;;5083182;28;20051;-58
2023/02/07 07:27:45;;;;;;;18.63;12.20;;;3.70;87.70;;;;;;5084378;28;20029;-57
2023/02/07 07:30:11;;;;;;;16.10;12.23;;;3.70;87.70;;;;;;5083404;28;20020;-58
2023/02/07 07:32:37;;;;;;;16.95;11.88;;;3.70;87.70;;;;;;5066337;28;20025;-57
2023/02/07 07:35:03;;;;;;;16.45;11.90;;;3.70;87.60;;;;;;5081588;28;20032;-57
2023/02/07 07:37:29;;;;;;;15.98;11.77;;;3.70;87.70;;;;;;5080110;28;20084;-57
2023/02/07 07:39:54;;;;;;;18.33;11.68;;;3.60;87.70;;;;;;5066201;28;20047;-57
2023/02/07 07:42:20;;;;;;;21.40;12.10;;;3.70;87.70;;;;;;5086612;28;20031;-57
2023/02/07 07:44:45;;;;;;;16.58;11.35;;;3.70;87.70;;;;;;5088535;28;20438;-57
2023/02/07 07:47:12;;;;;;;14.75;10.73;;;3.70;87.70;;;;;;5088285;28;20025;-57
2023/02/07 07:49:38;;;;;;;16.50;11.45;;;3.70;87.60;;;;;;5070801;28;20036;-58
2023/02/07 07:52:04;;;;;;;21.40;10.95;;;3.70;87.70;;;;;;5087247;28;20025;-57
2023/02/07 07:54:29;;;;;;;12.90;10.65;;;3.70;87.70;;;;;;5087296;28;20028;-58
2023/02/07 07:56:55;;;;;;;19.58;11.88;;;3.70;87.70;;;;;;5112806;28;20103;-57
2023/02/07 07:59:20;;;;;;;13.18;11.30;;;3.70;87.60;;;;;;5117647;28;20091;-57
2023/02/07 08:01:46;;;;;;;17.80;11.45;;;3.70;87.60;;;;;;5113921;28;20055;-58
2023/02/07 08:04:11;;;;;;;20.83;11.95;;;3.70;87.50;;;;;;5118751;28;20041;-58
2023/02/07 08:06:37;;;;;;;18.40;11.50;;;3.70;87.40;;;;;;5114787;28;20038;-57
2023/02/07 08:09:02;;;;;;;23.17;12.05;;;3.70;87.50;;;;;;5105080;28;20044;-57
2023/02/07 08:11:28;;;;;;;19.45;13.13;;;3.70;87.40;;;;;;5104031;28;20040;-58
2023/02/07 08:13:54;;;;;;;22.58;11.90;;;3.70;87.40;;;;;;5103946;28;20055;-57
2023/02/07 08:16:19;;;;;;;19.10;12.20;;;3.70;87.50;;;;;;5100001;28;20032;-57
2023/02/07 08:18:45;;;;;;;19.55;12.65;;;3.70;87.40;;;;;;5107788;28;20043;-58
2023/02/07 08:21:10;;;;;;;21.50;11.38;;;3.70;87.40;;;;;;5106313;28;20123;-57
2023/02/07 08:23:36;;;;;;;21.55;12.57;;;3.70;87.40;;;;;;5106207;28;20024;-57
2023/02/07 08:26:02;;;;;;;24.63;12.93;;;3.70;87.40;;;;;;5106710;28;20040;-58
2023/02/07 08:28:27;;;;;;;17.40;12.02;;;3.60;87.40;;;;;;5107924;28;20220;-56
2023/02/07 08:30:53;;;;;;;20.33;12.00;;;3.70;87.40;;;;;;5103301;28;20039;-57
2023/02/07 08:33:19;;;;;;;28.65;13.60;;;3.70;87.40;;;;;;5107766;28;20088;-57
2023/02/07 08:35:44;;;;;;;22.13;12.02;;;3.70;87.40;;;;;;5106390;28;20039;-57
2023/02/07 08:38:10;;;;;;;38.00;12.43;;;3.70;87.40;;;;;;5106275;28;20039;-57
2023/02/07 08:40:35;;;;;;;44.65;14.82;;;3.70;87.40;;;;;;5105398;28;20035;-57
2023/02/07 08:43:01;;;;;;;35.85;13.85;;;3.70;87.30;;;;;;5106148;28;20028;-58
2023/02/07 08:45:27;;;;;;;39.90;14.65;;;3.70;87.40;;;;;;5105886;28;20032;-57
2023/02/07 08:47:52;;;;;;;59.20;16.17;;;3.70;87.30;;;;;;5090412;28;20042;-57
2023/02/07 08:50:18;;;;;;;61.55;16.52;;;3.70;87.40;;;;;;5086966;28;20042;-58
2023/02/07 08:52:43;;;;;;;54.35;15.23;;;3.70;87.50;;;;;;5085446;28;20081;-57
2023/02/07 08:55:09;;;;;;;48.78;15.23;;;3.70;87.60;;;;;;5068795;28;20467;-57
2023/02/07 08:57:35;;;;;;;46.42;15.02;;;3.70;87.60;;;;;;5086472;28;20066;-57
2023/02/07 09:00:00;;;;;;;38.53;13.43;;;3.70;87.60;;;;;;5105712;28;20081;-57
2023/02/07 09:02:26;;;;;;;47.42;13.88;;;3.70;87.70;;;;;;5096376;28;20035;-57
2023/02/07 09:04:51;;;;;;;37.80;14.13;;;3.70;87.60;;;;;;5069621;28;20036;-57
2023/02/07 09:07:17;;;;;;;32.78;12.80;;;3.70;87.50;;;;;;5085694;28;20028;-57
2023/02/07 09:09:43;;;;;;;35.17;14.88;;;3.70;87.50;;;;;;5093450;28;20468;-57
2023/02/07 09:12:09;;;;;;;33.28;14.45;;;3.70;87.40;;;;;;5085902;28;20088;-58
2023/02/07 09:14:35;;;;;;;36.63;14.63;;;3.70;87.40;;;;;;5085455;28;20043;-57
2023/02/07 09:17:01;;;;;;;46.03;14.65;;;3.70;87.40;;;;;;5085865;28;20028;-57
2023/02/07 09:19:26;;;;;;;33.63;14.20;;;3.70;87.60;;;;;;5102193;28;20471;-58
2023/02/07 09:21:52;;;;;;;30.05;13.43;;;3.70;87.70;;;;;;5090270;28;20036;-57
2023/02/07 09:27:39;;;;;;;30.05;13.05;;;3.70;87.40;;;;;;5086870;28;20512;-57
2023/02/07 09:30:05;;;;;;;22.92;12.80;;;3.70;87.40;;;;;;5085166;28;20028;-58
2023/02/07 09:32:31;;;;;;;34.42;14.20;;;3.70;87.40;;;;;;5086614;28;20025;-57
2023/02/07 09:34:57;;;;;;;36.80;13.15;;;3.70;87.30;;;;;;5084839;28;20029;-57
2023/02/07 09:37:22;;;;;;;29.70;12.25;;;3.80;87.40;;;;;;5086290;28;20043;-57
2023/02/07 09:39:48;;;;;;;26.67;12.65;;;3.70;87.20;;;;;;5086834;28;20040;-57
2023/02/07 09:49:25;;;;;;;29.13;13.57;;;3.80;87.10;;;;;;5085654;28;20059;-57
2023/02/07 09:51:50;;;;;;;21.73;13.10;;;3.70;87.00;;;;;;5083877;28;20036;-58
2023/02/07 09:54:38;;;;;;;19.63;12.82;;;3.70;87.00;;;;;;5085550;28;20032;-57
2023/02/07 09:57:11;;;;;;;26.23;13.77;;;3.70;87.10;;;;;;5104821;28;20040;-58
2023/02/07 10:00:08;;;;;;;35.42;13.38;;;3.80;88.00;;;;;;5090541;28;20039;-57
2023/02/07 10:03:11;;;;;;;22.20;12.93;;;3.80;87.20;;;;;;5114136;28;20467;-57
2023/02/07 10:05:50;;;;;;;28.52;13.43;;;3.80;87.20;;;;;;5097743;28;20078;-57
2023/02/07 10:08:17;;;;;;;28.50;13.68;;;3.80;87.30;;;;;;5117706;28;20066;-58
2023/02/07 10:11:06;;;;;;;24.63;12.52;;;3.80;87.40;;;;;;5108038;28;20020;-57
2023/02/07 10:13:34;;;;;;;64.22;16.60;;;3.80;87.40;;;;;;5123692;28;20034;-57
2023/02/07 10:16:43;;;;;;;49.17;15.90;;;3.80;87.50;;;;;;5126530;28;20050;-57
2023/02/07 10:19:13;;;;;;;35.20;14.38;;;3.80;87.60;;;;;;5042275;28;20167;-57
2023/02/07 10:21:38;;;;;;;34.90;14.05;;;3.80;87.50;;;;;;5026493;28;20034;-58
2023/02/07 10:24:27;;;;;;;29.73;13.95;;;3.80;87.50;;;;;;5086906;28;20382;-57
2023/02/07 10:26:58;;;;;;;34.30;13.85;;;3.80;87.50;;;;;;5087585;28;20045;-57
2023/02/07 10:29:42;;;;;;;67.72;18.98;;;3.80;87.50;;;;;;5101654;28;20430;-57
2023/02/07 10:32:18;;;;;;;47.85;16.10;;;3.90;87.70;;;;;;5117762;28;20044;-57
2023/02/07 10:34:46;;;;;;;43.95;14.98;;;3.90;87.60;;;;;;5099008;28;20538;-58
2023/02/07 10:37:16;;;;;;;48.55;16.02;;;3.90;87.50;;;;;;5118553;28;20046;-57
2023/02/07 10:39:53;;;;;;;42.50;14.77;;;3.90;87.50;;;;;;5089668;28;20059;-57
2023/02/07 10:42:19;;;;;;;37.45;14.75;;;3.90;87.60;;;;;;5095803;28;20082;-57
2023/02/07 10:44:44;;;;;;;36.95;14.45;;;3.90;87.60;;;;;;5114935;28;20039;-57
2023/02/07 10:47:15;;;;;;;51.42;15.27;;;3.90;87.60;;;;;;5088192;28;20028;-58
2023/02/07 10:49:41;;;;;;;45.83;14.48;;;4.00;88.20;;;;;;5082432;28;20124;-57
2023/02/07 10:52:24;;;;;;;33.92;14.98;;;4.00;87.50;;;;;;5099028;28;20024;-58
2023/02/07 10:54:55;;;;;;;31.02;14.70;;;4.00;87.50;;;;;;5085188;28;20058;-58
2023/02/07 10:57:20;;;;;;;26.05;15.25;;;4.00;87.50;;;;;;5073299;28;20131;-57
2023/02/07 10:59:46;;;;;;;35.05;15.27;;;4.00;87.60;;;;;;5102145;28;20038;-58
2023/02/07 11:02:27;;;;;;;39.60;15.50;;;4.00;87.50;;;;;;5102488;28;20039;-57
2023/02/07 11:04:52;;;;;;;46.05;15.43;;;4.00;87.60;;;;;;5095178;28;20131;-57
2023/02/07 11:07:19;;;;;;;40.78;15.32;;;4.00;87.50;;;;;;5095161;28;20055;-57
2023/02/07 11:09:44;;;;;;;43.90;14.85;;;3.80;87.40;;;;;;5094654;28;20020;-58
2023/02/07 11:12:21;;;;;;;51.35;15.00;;;4.00;87.50;;;;;;5095000;28;20124;-58
2023/02/07 11:15:14;;;;;;;37.63;15.77;;;4.00;87.50;;;;;;5094187;28;20084;-57
2023/02/07 11:17:48;;;;;;;24.13;13.80;;;4.10;87.60;;;;;;5103856;28;20028;-58
2023/02/07 11:20:25;;;;;;;42.03;14.93;;;4.00;87.40;;;;;;5094880;28;20928;-57
2023/02/07 11:22:59;;;;;;;48.58;16.63;;;4.10;87.50;;;;;;5094525;28;20049;-58
2023/02/07 11:25:36;;;;;;;57.03;14.90;;;4.10;87.70;;;;;;5092935;28;20480;-58
2023/02/07 11:28:01;;;;;;;47.45;16.10;;;4.10;87.70;;;;;;5092723;28;20036;-57
2023/02/07 11:30:27;;;;;;;81.20;18.20;;;4.10;87.70;;;;;;5075611;28;20066;-58
2023/02/07 11:33:00;;;;;;;50.95;17.25;;;4.10;87.70;;;;;;5093447;28;20020;-58
2023/02/07 11:35:26;;;;;;;58.97;17.05;;;4.10;87.80;;;;;;5076501;28;20023;-58
2023/02/07 11:38:03;;;;;;;78.50;18.50;;;4.20;88.00;;;;;;5091939;28;20032;-58
2023/02/07 11:40:28;;;;;;;67.80;17.65;;;4.20;88.10;;;;;;5094003;28;20256;-58
2023/02/07 11:43:02;;;;;;;53.90;16.40;;;4.20;88.20;;;;;;5095862;28;20059;-58
2023/02/07 11:45:28;;;;;;;58.08;16.77;;;4.20;88.20;;;;;;5092613;28;20031;-57
2023/02/07 11:47:55;;;;;;;61.67;18.27;;;4.20;88.10;;;;;;5093768;28;20032;-58
2023/02/07 11:50:34;;;;;;;64.18;17.23;;;4.30;88.10;;;;;;5093854;28;20495;-58
2023/02/07 11:52:59;;;;;;;80.50;17.10;;;4.30;88.20;;;;;;5076872;28;20132;-58
2023/02/07 11:55:37;;;;;;;85.75;18.48;;;4.30;88.10;;;;;;5093012;28;20063;-58
2023/02/07 11:58:33;;;;;;;100.82;20.23;;;4.30;88.10;;;;;;5094270;28;20086;-58
2023/02/07 12:00:59;;;;;;;110.47;19.65;;;4.30;88.40;;;;;;5091487;28;20041;-57
2023/02/07 12:03:32;;;;;;;104.70;21.80;;;4.40;88.60;;;;;;5093971;28;20062;-58
2023/02/07 12:05:59;;;;;;;83.47;20.08;;;4.50;88.70;;;;;;5096110;28;20441;-58
2023/02/07 12:08:27;;;;;;;99.45;20.83;;;4.40;88.70;;;;;;5077112;28;20020;-58
2023/02/07 12:11:06;;;;;;;92.80;20.55;;;4.40;88.60;;;;;;5077236;28;20032;-58
2023/02/07 12:13:47;;;;;;;129.45;24.75;;;4.40;88.60;;;;;;5091157;28;20032;-58
2023/02/07 12:16:19;;;;;;;122.65;24.40;;;4.40;88.80;;;;;;5076924;28;20058;-58
2023/02/07 12:18:56;;;;;;;95.03;21.65;;;4.50;88.80;;;;;;5094021;28;20024;-58
2023/02/07 12:22:03;;;;;;;116.22;22.83;;;4.60;88.70;;;;;;5093834;28;20123;-58
2023/02/07 12:24:33;;;;;;;85.72;20.67;;;4.50;88.70;;;;;;5014442;28;20022;-58
2023/02/07 12:27:18;;;;;;;107.93;23.20;;;4.50;88.70;;;;;;5002389;28;20022;-58
2023/02/07 12:30:20;;;;;;;115.17;22.50;;;4.60;89.30;;;;;;5044348;28;20040;-58
2023/02/07 12:32:52;;;;;;;109.22;22.27;;;4.60;88.60;;;;;;5094586;28;20077;-58
2023/02/07 12:35:20;;;;;;;107.93;23.05;;;4.60;88.80;;;;;;5095367;28;20047;-58
2023/02/07 12:38:15;;;;;;;121.82;22.05;;;4.60;88.60;;;;;;5098277;28;20089;-57
2023/02/07 12:40:43;;;;;;;125.47;23.05;;;4.60;88.60;;;;;;5080823;28;20028;-58
2023/02/07 12:43:20;;;;;;;137.60;25.85;;;4.60;88.50;;;;;;5097521;28;20032;-57
2023/02/07 12:46:01;;;;;;;151.65;27.60;;;4.60;88.40;;;;;;5100994;28;20044;-57
2023/02/07 12:49:04;;;;;;;99.18;21.42;;;4.60;88.40;;;;;;5103798;28;20044;-57
2023/02/07 12:51:57;;;;;;;108.00;24.08;;;4.60;88.20;;;;;;5099623;28;20032;-58
2023/02/07 12:54:41;;;;;;;128.20;22.75;;;4.60;88.20;;;;;;5091693;28;20020;-58
2023/02/07 12:57:14;;;;;;;108.53;23.08;;;4.70;88.20;;;;;;5105962;28;20028;-57
2023/02/07 13:00:22;;;;;;;105.70;20.92;;;4.60;88.00;;;;;;5100771;28;20031;-58